createdAt,value
2023-01-17T00:00:06.765Z,97188.28
2023-01-17T00:02:33.331Z,97194.19
2023-01-17T00:04:59.871Z,97138.34
2023-01-17T00:07:27.795Z,97191.16
2023-01-17T00:09:54.315Z,97131.44
2023-01-17T00:12:21.601Z,97201.44
2023-01-17T00:14:48.555Z,97198.56
2023-01-17T00:17:15.438Z,97174.94
2023-01-17T00:19:41.887Z,97133.75
2023-01-17T00:22:28.934Z,97189.09
2023-01-17T00:24:55.563Z,97167.66
2023-01-17T00:27:21.999Z,97182.28
2023-01-17T00:29:48.533Z,97120.91
2023-01-17T00:32:15.030Z,97185.78
2023-01-17T00:34:41.477Z,97196.16
2023-01-17T00:37:08.126Z,97166.56
2023-01-17T00:39:34.572Z,97170.28
2023-01-17T00:42:01.074Z,97189.16
2023-01-17T00:44:27.490Z,97189.59
2023-01-17T00:46:54.006Z,97138.06
2023-01-17T00:49:20.560Z,97178.53
2023-01-17T00:51:47.197Z,97194.44
2023-01-17T00:54:14.420Z,97188.97
2023-01-17T00:56:40.947Z,97162.63
2023-01-17T00:59:07.479Z,97173.69
2023-01-17T01:01:34.946Z,97181.72
2023-01-17T01:04:01.551Z,97188.91
2023-01-17T01:06:28.106Z,97181.63
2023-01-17T01:08:54.573Z,97171.09
2023-01-17T01:11:21.533Z,97169.69
2023-01-17T01:13:47.993Z,97181.97
2023-01-17T01:16:15.292Z,97127.25
2023-01-17T01:18:41.820Z,97199.41
2023-01-17T01:21:08.338Z,97158.53
2023-01-17T01:23:35.293Z,97149.34
2023-01-17T01:26:03.862Z,97197.69
2023-01-17T01:28:30.428Z,97203.53
2023-01-17T01:31:02.491Z,97220.28
2023-01-17T01:33:29.024Z,97219.75
2023-01-17T01:35:55.813Z,97235.88
2023-01-17T01:38:24.759Z,97249.44
2023-01-17T01:40:53.852Z,97243.09
2023-01-17T01:43:39.546Z,97256.56
2023-01-17T01:46:08.011Z,97249.19
2023-01-17T01:48:54.986Z,97275.56
2023-01-17T01:51:45.618Z,97259.94
2023-01-17T01:54:19.318Z,97284.44
2023-01-17T01:56:47.079Z,97274.91
2023-01-17T01:59:17.542Z,97286.28
2023-01-17T02:01:44.122Z,97294.31
2023-01-17T02:04:11.222Z,97291.97
2023-01-17T02:06:43.767Z,97264.78
2023-01-17T02:09:12.683Z,97333.81
2023-01-17T02:11:40.277Z,97255.66
2023-01-17T02:14:07.182Z,97295.91
2023-01-17T02:16:38.045Z,97307.09
2023-01-17T02:19:07.399Z,97316.00
2023-01-17T02:21:47.835Z,97324.63
2023-01-17T02:24:33.513Z,97309.88
2023-01-17T02:27:29.447Z,97321.25
2023-01-17T02:30:19.001Z,97310.69
2023-01-17T02:32:48.748Z,97303.00
2023-01-17T02:35:42.186Z,97294.25
2023-01-17T02:38:29.393Z,97326.25
2023-01-17T02:41:01.391Z,97318.47
2023-01-17T02:43:28.183Z,97323.09
2023-01-17T02:45:54.783Z,97314.69
2023-01-17T02:48:25.673Z,97302.31
2023-01-17T02:51:16.783Z,97294.84
2023-01-17T02:53:56.640Z,97273.97
2023-01-17T02:56:31.694Z,97310.25
2023-01-17T02:59:23.855Z,97323.78
2023-01-17T03:02:08.967Z,97325.44
2023-01-17T03:04:44.845Z,97332.94
2023-01-17T03:07:25.888Z,97335.28
2023-01-17T03:09:57.391Z,97306.28
2023-01-17T03:12:27.918Z,97332.16
2023-01-17T03:14:54.428Z,97332.72
2023-01-17T03:17:21.603Z,97271.25
2023-01-17T03:19:48.062Z,97328.13
2023-01-17T03:22:14.484Z,97339.84
2023-01-17T03:24:40.951Z,97329.59
2023-01-17T03:27:07.432Z,97318.88
2023-01-17T03:29:33.966Z,97317.06
2023-01-17T03:32:00.562Z,97312.38
2023-01-17T03:34:27.138Z,97303.56
2023-01-17T03:36:53.572Z,97272.66
2023-01-17T03:39:20.040Z,97296.31
2023-01-17T03:41:46.442Z,97307.13
2023-01-17T03:44:12.854Z,97232.56
2023-01-17T03:46:39.382Z,97308.69
2023-01-17T03:49:05.883Z,97293.19
2023-01-17T03:51:32.423Z,97247.06
2023-01-17T03:53:58.869Z,97258.22
2023-01-17T03:56:25.294Z,97290.88
2023-01-17T03:58:51.730Z,97273.28
2023-01-17T04:01:18.293Z,97255.31
2023-01-17T04:03:44.905Z,97305.59
2023-01-17T04:06:11.455Z,97290.22
2023-01-17T04:08:38.001Z,97309.53
2023-01-17T04:11:04.631Z,97317.22
2023-01-17T04:13:31.176Z,97314.53
2023-01-17T04:15:58.011Z,97309.88
2023-01-17T04:18:24.826Z,97302.94
2023-01-17T04:20:51.690Z,97322.34
2023-01-17T04:23:18.592Z,97316.44
2023-01-17T04:25:45.174Z,97302.59
2023-01-17T04:28:11.943Z,97293.78
2023-01-17T04:30:38.454Z,97287.44
2023-01-17T04:33:05.256Z,97277.84
2023-01-17T04:35:32.463Z,97220.44
2023-01-17T04:37:59.458Z,97263.13
2023-01-17T04:40:26.018Z,97246.41
2023-01-17T04:42:52.602Z,97227.66
2023-01-17T04:45:19.157Z,97221.53
2023-01-17T04:47:45.622Z,97210.81
2023-01-17T04:50:12.337Z,97206.59
2023-01-17T04:52:38.821Z,97182.75
2023-01-17T04:55:06.141Z,97117.25
2023-01-17T04:57:32.830Z,97116.44
2023-01-17T04:59:59.429Z,97153.53
2023-01-17T05:02:26.045Z,97088.94
2023-01-17T05:04:52.629Z,97124.84
2023-01-17T05:07:19.159Z,97040.78
2023-01-17T05:09:45.721Z,97091.38
2023-01-17T05:12:12.112Z,97072.03
2023-01-17T05:14:38.703Z,97066.56
2023-01-17T05:17:05.211Z,97047.28
2023-01-17T05:19:31.788Z,96993.91
2023-01-17T05:21:58.221Z,97052.13
2023-01-17T05:24:24.655Z,97021.50
2023-01-17T05:26:51.173Z,97023.81
2023-01-17T05:29:17.665Z,96995.91
2023-01-17T05:31:44.169Z,97003.91
2023-01-17T05:34:11.387Z,97023.31
2023-01-17T05:36:37.964Z,97017.88
2023-01-17T05:39:04.544Z,96976.28
2023-01-17T05:41:30.992Z,96988.06
2023-01-17T05:43:57.465Z,97028.25
2023-01-17T05:46:23.967Z,97023.13
2023-01-17T05:48:50.452Z,96977.63
2023-01-17T05:51:17.086Z,97025.25
2023-01-17T05:53:43.593Z,97029.94
2023-01-17T05:56:10.053Z,97031.94
2023-01-17T05:58:36.560Z,97026.81
2023-01-17T06:01:03.046Z,97021.69
2023-01-17T06:03:29.784Z,96986.66
2023-01-17T06:05:56.248Z,97003.34
2023-01-17T06:08:22.836Z,97015.91
2023-01-17T06:10:49.729Z,96964.06
2023-01-17T06:13:16.164Z,96942.03
2023-01-17T06:15:42.774Z,96959.47
2023-01-17T06:18:11.820Z,96967.38
2023-01-17T06:20:38.626Z,96895.78
2023-01-17T06:23:07.048Z,96938.03
2023-01-17T06:25:42.186Z,96923.44
2023-01-17T06:28:08.696Z,96891.50
2023-01-17T06:30:35.526Z,96886.81
2023-01-17T06:33:02.560Z,96864.25
2023-01-17T06:35:29.272Z,96857.00
2023-01-17T06:37:56.089Z,96808.56
2023-01-17T06:40:22.539Z,96832.31
2023-01-17T06:42:49.000Z,96826.06
2023-01-17T06:45:15.602Z,96788.63
2023-01-17T06:47:42.689Z,96759.16
2023-01-17T06:50:12.022Z,96678.72
2023-01-17T06:52:38.474Z,96585.78
2023-01-17T06:55:05.416Z,96611.38
2023-01-17T06:57:31.908Z,96537.94
2023-01-17T06:59:58.373Z,96550.72
2023-01-17T07:02:24.933Z,96513.44
2023-01-17T07:04:52.022Z,96468.13
2023-01-17T07:07:18.567Z,96484.88
2023-01-17T07:09:45.018Z,96505.81
2023-01-17T07:12:11.478Z,96516.38
2023-01-17T07:14:38.008Z,96549.81
2023-01-17T07:17:04.719Z,96517.53
2023-01-17T07:19:31.178Z,96580.75
2023-01-17T07:21:57.743Z,96578.09
2023-01-17T07:24:24.469Z,96576.16
2023-01-17T07:26:51.814Z,96590.03
2023-01-17T07:29:18.846Z,96586.84
2023-01-17T07:31:45.467Z,96593.31
2023-01-17T07:34:12.107Z,96567.25
2023-01-17T07:36:38.544Z,96597.63
2023-01-17T07:39:06.368Z,96581.44
2023-01-17T07:41:33.858Z,96582.13
2023-01-17T07:44:00.542Z,96594.78
2023-01-17T07:46:27.237Z,96597.56
2023-01-17T07:48:53.704Z,96555.63
2023-01-17T07:51:20.188Z,96602.47
2023-01-17T07:53:46.741Z,96586.56
2023-01-17T07:56:13.245Z,96582.38
2023-01-17T07:58:39.723Z,96601.59
2023-01-17T08:01:11.799Z,96593.75
2023-01-17T08:03:38.731Z,96550.50
2023-01-17T08:06:23.761Z,96540.28
2023-01-17T08:08:50.348Z,96568.88
2023-01-17T08:11:19.379Z,96604.47
2023-01-17T08:13:45.865Z,96581.44
2023-01-17T08:16:13.578Z,96574.91
2023-01-17T08:18:40.268Z,96519.25
2023-01-17T08:21:16.943Z,96557.09
2023-01-17T08:23:47.806Z,96574.59
2023-01-17T08:26:15.124Z,96554.75
2023-01-17T08:28:41.626Z,96573.81
2023-01-17T08:31:09.310Z,96526.50
2023-01-17T08:33:35.733Z,96556.56
2023-01-17T08:36:02.307Z,96585.81
2023-01-17T08:38:31.541Z,96586.66
2023-01-17T08:41:00.993Z,96581.09
2023-01-17T08:43:27.416Z,96591.06
2023-01-17T08:45:53.972Z,96597.75
2023-01-17T08:48:20.499Z,96598.59
2023-01-17T08:50:47.079Z,96599.69
2023-01-17T08:53:13.556Z,96543.63
2023-01-17T08:55:39.996Z,96568.88
2023-01-17T08:58:07.299Z,96570.91
2023-01-17T09:00:34.577Z,96519.56
2023-01-17T09:03:01.097Z,96598.09
2023-01-17T09:05:28.145Z,96603.44
2023-01-17T09:07:55.531Z,96621.03
2023-01-17T09:10:22.576Z,96654.44
2023-01-17T09:15:33.526Z,96619.00
2023-01-17T09:18:00.006Z,96630.75
2023-01-17T09:20:26.617Z,96659.78
2023-01-17T09:23:11.824Z,96676.16
2023-01-17T09:25:38.338Z,96663.13
2023-01-17T09:28:05.043Z,96667.31
2023-01-17T09:30:31.930Z,96654.25
2023-01-17T09:32:58.431Z,96692.22
2023-01-17T09:35:25.044Z,96699.69
2023-01-17T09:37:51.858Z,96665.41
2023-01-17T09:40:22.753Z,96713.47
2023-01-17T09:42:54.056Z,96675.00
2023-01-17T09:45:21.174Z,96729.44
2023-01-17T09:47:51.041Z,96750.31
2023-01-17T09:50:41.793Z,96743.66
2023-01-17T09:53:17.696Z,96836.09
2023-01-17T09:55:49.404Z,96826.44
2023-01-17T09:58:20.925Z,96824.94
2023-01-17T10:01:33.484Z,96911.44
2023-01-17T10:04:20.498Z,96945.91
2023-01-17T10:07:12.096Z,96972.66
2023-01-17T10:09:59.496Z,97008.66
2023-01-17T10:12:37.089Z,97045.78
2023-01-17T10:15:13.509Z,97083.84
2023-01-17T10:17:46.736Z,97149.75
2023-01-17T10:20:32.620Z,97115.53
2023-01-17T10:23:17.524Z,97176.50
2023-01-17T10:25:50.433Z,97242.91
2023-01-17T10:28:35.129Z,97291.25
2023-01-17T10:31:24.910Z,97314.53
2023-01-17T10:33:56.457Z,97372.69
2023-01-17T10:36:26.138Z,97557.19
2023-01-17T10:38:59.425Z,97661.19
2023-01-17T10:41:32.056Z,97762.41
2023-01-17T10:44:23.378Z,97810.78
2023-01-17T10:46:55.371Z,97854.25
2023-01-17T10:49:24.942Z,97924.50
2023-01-17T10:52:00.587Z,97937.91
2023-01-17T10:55:00.832Z,97903.06
2023-01-17T10:57:27.931Z,97869.94
2023-01-17T11:00:00.260Z,97904.97
2023-01-17T11:02:37.341Z,97920.63
2023-01-17T11:05:18.341Z,97926.81
2023-01-17T11:08:07.093Z,97917.44
2023-01-17T11:10:48.731Z,97952.44
2023-01-17T11:13:25.940Z,97946.38
2023-01-17T11:16:17.964Z,97940.84
2023-01-17T11:18:45.115Z,97920.47
2023-01-17T11:21:21.893Z,97884.94
2023-01-17T11:23:52.248Z,97902.72
2023-01-17T11:26:27.911Z,97895.31
2023-01-17T11:29:36.932Z,97873.72
2023-01-17T11:32:22.234Z,97893.47
2023-01-17T11:35:15.116Z,97954.31
2023-01-17T11:38:13.616Z,98045.88
2023-01-17T11:40:40.118Z,98080.09
2023-01-17T11:43:25.228Z,98067.53
2023-01-17T11:46:16.376Z,98068.00
2023-01-17T11:48:49.525Z,98116.78
2023-01-17T11:51:30.200Z,98148.38
2023-01-17T11:54:26.450Z,98108.97
2023-01-17T11:57:02.335Z,98217.59
2023-01-17T11:59:43.196Z,98265.44
2023-01-17T12:02:31.572Z,98250.50
2023-01-17T12:05:25.673Z,98286.84
2023-01-17T12:08:20.071Z,98255.09
2023-01-17T12:10:58.131Z,98415.91
2023-01-17T12:14:13.023Z,98520.78
2023-01-17T12:17:08.361Z,98575.38
2023-01-17T12:20:09.881Z,98746.13
2023-01-17T12:22:54.987Z,98777.16
2023-01-17T12:25:24.148Z,98832.06
2023-01-17T12:28:13.539Z,98840.56
2023-01-17T12:30:43.009Z,98846.03
2023-01-17T12:33:28.259Z,98829.94
2023-01-17T12:35:54.656Z,98829.31
2023-01-17T12:38:38.580Z,98823.56
2023-01-17T12:41:30.936Z,98845.56
2023-01-17T12:44:00.266Z,98832.00
2023-01-17T12:46:50.162Z,98781.56
2023-01-17T12:49:28.543Z,98846.78
2023-01-17T12:52:06.712Z,98885.38
2023-01-17T12:54:39.026Z,98915.16
2023-01-17T12:57:16.585Z,98996.75
2023-01-17T12:59:57.978Z,98967.81
2023-01-17T13:03:03.082Z,98979.25
2023-01-17T13:05:49.745Z,98949.00
2023-01-17T13:08:28.209Z,98876.22
2023-01-17T13:11:30.645Z,98936.81
2023-01-17T13:13:57.333Z,98987.91
2023-01-17T13:16:33.022Z,98990.56
2023-01-17T13:19:06.225Z,98960.69
2023-01-17T13:21:34.343Z,99037.78
2023-01-17T13:24:00.804Z,99025.88
2023-01-17T13:26:29.907Z,98955.34
2023-01-17T13:29:12.144Z,98982.94
2023-01-17T13:31:47.952Z,99013.69
2023-01-17T13:34:40.039Z,99057.50
2023-01-17T13:37:30.102Z,99062.81
2023-01-17T13:40:30.353Z,99041.28
2023-01-17T13:43:00.946Z,98988.56
2023-01-17T13:45:31.003Z,98977.09
2023-01-17T13:48:12.544Z,98997.78
2023-01-17T13:50:41.841Z,99043.31
2023-01-17T13:53:36.053Z,99045.69
2023-01-17T13:56:19.432Z,99033.59
2023-01-17T13:58:45.845Z,99031.19
2023-01-17T14:01:12.428Z,99033.59
2023-01-17T14:03:51.127Z,99056.34
2023-01-17T14:06:35.904Z,99045.69
2023-01-17T14:09:08.588Z,99041.59
2023-01-17T14:11:59.304Z,99043.13
2023-01-17T14:14:34.729Z,99020.16
2023-01-17T14:17:16.600Z,98966.72
2023-01-17T14:19:46.476Z,98998.66
2023-01-17T14:22:22.661Z,99018.09
2023-01-17T14:25:08.066Z,99034.19
2023-01-17T14:27:35.153Z,98995.06
2023-01-17T14:30:16.176Z,99008.25
2023-01-17T14:33:02.758Z,99018.81
2023-01-17T14:35:32.469Z,99015.22
2023-01-17T14:37:59.977Z,99034.16
2023-01-17T14:40:28.828Z,99031.34
2023-01-17T14:43:13.862Z,99020.06
2023-01-17T14:45:42.344Z,99039.56
2023-01-17T14:48:22.490Z,99069.34
2023-01-17T14:50:50.882Z,99054.94
2023-01-17T14:53:24.815Z,99032.06
2023-01-17T14:55:53.517Z,99060.09
2023-01-17T14:58:31.083Z,99039.38
2023-01-17T15:01:01.477Z,99035.03
2023-01-17T15:03:30.218Z,98992.47
2023-01-17T15:06:04.888Z,99077.63
2023-01-17T15:08:35.520Z,99084.53
2023-01-17T15:11:10.119Z,99059.59
2023-01-17T15:13:45.055Z,99070.97
2023-01-17T15:16:19.794Z,99022.59
2023-01-17T15:18:46.583Z,99055.53
2023-01-17T15:21:17.204Z,99045.63
2023-01-17T15:23:55.233Z,99048.19
2023-01-17T15:26:25.175Z,99044.22
2023-01-17T15:28:53.301Z,99055.28
2023-01-17T15:31:36.686Z,98986.88
2023-01-17T15:34:07.083Z,99025.38
2023-01-17T15:36:34.116Z,98998.59
2023-01-17T15:39:04.963Z,98964.09
2023-01-17T15:41:34.628Z,98777.41
2023-01-17T15:44:01.532Z,98898.88
2023-01-17T15:46:42.728Z,98914.16
2023-01-17T15:49:20.708Z,98848.75
2023-01-17T15:52:14.864Z,98871.53
2023-01-17T15:54:42.902Z,98837.69
2023-01-17T15:57:24.624Z,98817.09
2023-01-17T16:00:04.856Z,98808.41
2023-01-17T16:02:36.130Z,98786.03
2023-01-17T16:05:24.646Z,98710.78
2023-01-17T16:07:56.681Z,98688.63
2023-01-17T16:10:29.125Z,98721.28
2023-01-17T16:12:55.757Z,98717.34
2023-01-17T16:15:23.008Z,98706.66
2023-01-17T16:17:52.604Z,98702.47
2023-01-17T16:20:23.671Z,98682.91
2023-01-17T16:22:50.865Z,98642.97
2023-01-17T16:25:21.254Z,98619.44
2023-01-17T16:27:48.325Z,98542.69
2023-01-17T16:30:18.496Z,98551.44
2023-01-17T16:32:46.714Z,98554.38
2023-01-17T16:35:21.120Z,98552.41
2023-01-17T16:37:51.813Z,98539.53
2023-01-17T16:40:20.168Z,98537.00
2023-01-17T16:42:46.951Z,98505.97
2023-01-17T16:45:14.479Z,98489.75
2023-01-17T16:47:46.292Z,98479.88
2023-01-17T16:50:15.821Z,98482.44
2023-01-17T16:52:42.315Z,98494.09
2023-01-17T16:55:12.982Z,98490.72
2023-01-17T16:57:40.073Z,98485.81
2023-01-17T17:00:08.675Z,98485.59
2023-01-17T17:02:35.241Z,98504.38
2023-01-17T17:05:01.803Z,98486.00
2023-01-17T17:07:28.334Z,98501.19
2023-01-17T17:09:54.801Z,98495.81
2023-01-17T17:12:21.323Z,98490.47
2023-01-17T17:14:47.876Z,98511.19
2023-01-17T17:17:14.738Z,98472.13
2023-01-17T17:19:41.377Z,98500.75
2023-01-17T17:22:07.898Z,98513.22
2023-01-17T17:24:34.396Z,98505.53
2023-01-17T17:27:00.918Z,98508.88
2023-01-17T17:29:27.428Z,98463.31
2023-01-17T17:31:53.869Z,98488.03
2023-01-17T17:34:20.378Z,98506.00
2023-01-17T17:36:46.996Z,98497.88
2023-01-17T17:39:14.717Z,98504.00
2023-01-17T17:41:43.350Z,98509.72
2023-01-17T17:44:10.211Z,98488.44
2023-01-17T17:46:36.836Z,98502.22
2023-01-17T17:49:03.672Z,98497.34
2023-01-17T17:51:35.538Z,98463.31
2023-01-17T17:54:05.757Z,98490.34
2023-01-17T17:56:33.585Z,98435.59
2023-01-17T17:59:01.593Z,98472.72
2023-01-17T18:01:29.421Z,98432.53
2023-01-17T18:04:00.508Z,98443.78
2023-01-17T18:06:27.003Z,98489.88
2023-01-17T18:08:53.871Z,98437.06
2023-01-17T18:11:23.181Z,98493.38
2023-01-17T18:13:51.781Z,98479.03
2023-01-17T18:16:22.893Z,98488.41
2023-01-17T18:18:52.315Z,98467.25
2023-01-17T18:21:21.803Z,98492.13
2023-01-17T18:23:48.272Z,98490.44
2023-01-17T18:26:26.989Z,98421.19
2023-01-17T18:28:55.294Z,98431.22
2023-01-17T18:31:23.162Z,98464.41
2023-01-17T18:33:49.671Z,98409.19
2023-01-17T18:36:16.111Z,98457.63
2023-01-17T18:38:45.245Z,98377.41
2023-01-17T18:41:22.794Z,98379.47
2023-01-17T18:43:49.441Z,98403.41
2023-01-17T18:46:17.334Z,98405.69
2023-01-17T18:48:44.135Z,98363.34
2023-01-17T18:51:14.032Z,98400.25
2023-01-17T18:53:41.979Z,98390.59
2023-01-17T18:56:10.867Z,98376.47
2023-01-17T18:58:42.626Z,98379.84
2023-01-17T19:01:11.987Z,98308.06
2023-01-17T19:03:40.354Z,98363.59
2023-01-17T19:06:09.718Z,98302.59
2023-01-17T19:08:37.012Z,98283.78
2023-01-17T19:11:03.862Z,98335.44
2023-01-17T19:13:34.766Z,98316.63
2023-01-17T19:16:02.987Z,98306.72
2023-01-17T19:18:30.263Z,98283.47
2023-01-17T19:21:05.423Z,98281.94
2023-01-17T19:23:31.949Z,98281.53
2023-01-17T19:25:58.400Z,98271.47
2023-01-17T19:28:24.961Z,98256.50
2023-01-17T19:31:01.922Z,98244.84
2023-01-17T19:33:28.388Z,98177.81
2023-01-17T19:35:58.953Z,98220.94
2023-01-17T19:38:25.416Z,98182.22
2023-01-17T19:40:51.958Z,98230.81
2023-01-17T19:43:18.495Z,98223.75
2023-01-17T19:45:54.621Z,98199.47
2023-01-17T19:48:21.176Z,98180.41
2023-01-17T19:50:47.577Z,98172.00
2023-01-17T19:53:14.140Z,98118.91
2023-01-17T19:55:40.685Z,98173.53
2023-01-17T19:58:07.144Z,98173.47
2023-01-17T20:00:33.739Z,98154.28
2023-01-17T20:03:00.256Z,98173.97
2023-01-17T20:05:26.901Z,98155.66
2023-01-17T20:07:53.446Z,98166.91
2023-01-17T20:10:19.969Z,98115.03
2023-01-17T20:12:46.587Z,98156.09
2023-01-17T20:15:13.137Z,98153.72
2023-01-17T20:17:39.656Z,98152.34
2023-01-17T20:20:07.578Z,98149.00
2023-01-17T20:22:34.095Z,98141.91
2023-01-17T20:25:00.604Z,98149.63
2023-01-17T20:27:28.013Z,98109.63
2023-01-17T20:29:54.500Z,98158.47
2023-01-17T20:32:21.057Z,98132.41
2023-01-17T20:34:47.489Z,98189.78
2023-01-17T20:37:14.000Z,98205.13
2023-01-17T20:39:40.517Z,98197.75
2023-01-17T20:42:07.066Z,98222.38
2023-01-17T20:44:33.596Z,98207.78
2023-01-17T20:47:00.546Z,98224.53
2023-01-17T20:49:27.089Z,98226.28
2023-01-17T20:51:54.461Z,98244.44
2023-01-17T20:54:21.438Z,98260.88
2023-01-17T20:56:48.051Z,98255.47
2023-01-17T20:59:17.784Z,98291.50
2023-01-17T21:01:45.391Z,98278.03
2023-01-17T21:04:12.406Z,98283.31
2023-01-17T21:06:40.238Z,98254.13
2023-01-17T21:09:08.268Z,98258.34
2023-01-17T21:11:34.904Z,98314.41
2023-01-17T21:14:01.620Z,98282.94
2023-01-17T21:16:28.780Z,98308.63
2023-01-17T21:18:55.325Z,98274.22
2023-01-17T21:21:24.630Z,98279.31
2023-01-17T21:23:53.525Z,98221.34
2023-01-17T21:26:21.521Z,98255.94
2023-01-17T21:28:50.008Z,98249.84
2023-01-17T21:31:28.492Z,98245.81
2023-01-17T21:33:56.510Z,98243.69
2023-01-17T21:36:25.611Z,98196.03
2023-01-17T21:38:54.595Z,98226.00
2023-01-17T21:41:29.602Z,98171.47
2023-01-17T21:43:58.686Z,98215.47
2023-01-17T21:46:26.387Z,98209.59
2023-01-17T21:48:53.179Z,98224.19
2023-01-17T21:51:20.049Z,98210.88
2023-01-17T21:53:46.574Z,98159.88
2023-01-17T21:56:14.447Z,98197.97
2023-01-17T21:58:40.980Z,98185.56
2023-01-17T22:01:08.035Z,98174.34
2023-01-17T22:03:35.922Z,98139.59
2023-01-17T22:06:02.760Z,98186.13
2023-01-17T22:08:32.307Z,98142.03
2023-01-17T22:11:06.376Z,98143.66
2023-01-17T22:13:33.986Z,98193.00
2023-01-17T22:16:03.366Z,98135.88
2023-01-17T22:18:31.059Z,98178.50
2023-01-17T22:20:57.693Z,98178.81
2023-01-17T22:23:24.151Z,98171.38
2023-01-17T22:25:50.668Z,98169.03
2023-01-17T22:28:17.193Z,98157.16
2023-01-17T22:30:43.725Z,98161.06
2023-01-17T22:33:10.274Z,98103.34
2023-01-17T22:35:36.737Z,98162.03
2023-01-17T22:38:03.268Z,98109.41
2023-01-17T22:40:29.754Z,98094.72
2023-01-17T22:42:56.538Z,98159.03
2023-01-17T22:45:23.143Z,98179.50
2023-01-17T22:47:49.649Z,98166.53
2023-01-17T22:50:16.461Z,98171.59
2023-01-17T22:52:43.031Z,98143.41
2023-01-17T22:55:09.711Z,98154.66
2023-01-17T22:57:36.233Z,98161.53
2023-01-17T23:00:02.972Z,98162.13
2023-01-17T23:02:29.443Z,98165.63
2023-01-17T23:04:55.953Z,98164.03
2023-01-17T23:07:22.492Z,98158.72
2023-01-17T23:09:48.983Z,98107.03
2023-01-17T23:12:15.411Z,98157.66
2023-01-17T23:14:41.973Z,98097.56
2023-01-17T23:17:08.540Z,98143.94
2023-01-17T23:19:40.887Z,98151.78
2023-01-17T23:22:10.785Z,98130.16
2023-01-17T23:24:39.175Z,98121.25
2023-01-17T23:27:05.921Z,98098.59
2023-01-17T23:29:32.446Z,98078.13
2023-01-17T23:31:58.945Z,98117.91
2023-01-17T23:34:25.497Z,98043.00
2023-01-17T23:36:51.983Z,98083.09
2023-01-17T23:39:18.497Z,98022.97
2023-01-17T23:41:45.006Z,98057.38
2023-01-17T23:44:11.612Z,98050.69
2023-01-17T23:46:38.212Z,98045.81
2023-01-17T23:49:04.717Z,97997.16
2023-01-17T23:51:31.229Z,98023.59
2023-01-17T23:53:57.699Z,97967.44
2023-01-17T23:56:24.490Z,97994.28
2023-01-17T23:58:51.071Z,98004.69
